Time;durP1;ratioP1;P1;durP2;ratioP2;P2;SDS_P1;SDS_P2;PMS_P1;PMS_P2;Temp;Humidity;BMP_temperature;BMP_pressure;BME280_temperature;BME280_humidity;BME280_pressure;Samples;Min_cycle;Max_cycle;Signal;HPM_P1;HPM_P2
2022/06/17 00:01:43;;;;;;;0.50;0.43;;;17.70;77.40;;;;;;5075137;28;20476;-80
2022/06/17 00:04:10;;;;;;;0.67;0.50;;;17.70;77.10;;;;;;5074756;28;20812;-80
2022/06/17 00:06:47;;;;;;;0.80;0.63;;;17.70;77.60;;;;;;5075072;28;20479;-80
2022/06/17 00:09:16;;;;;;;0.50;0.50;;;17.70;77.60;;;;;;5074800;28;20920;-81
2022/06/17 00:11:43;;;;;;;0.83;0.70;;;17.70;77.60;;;;;;5074707;28;20444;-81
2022/06/17 00:14:15;;;;;;;0.83;0.60;;;17.70;77.60;;;;;;5075562;28;20476;-81
2022/06/17 00:16:43;;;;;;;0.90;0.90;;;17.70;77.80;;;;;;5075519;28;20456;-81
2022/06/17 00:19:11;;;;;;;0.63;0.63;;;17.70;78.30;;;;;;5075257;28;20809;-80
2022/06/17 00:21:40;;;;;;;2.60;0.60;;;17.60;77.20;;;;;;5074413;28;20804;-80
2022/06/17 00:24:15;;;;;;;1.67;0.60;;;17.60;77.20;;;;;;5074455;28;20460;-81
2022/06/17 00:26:42;;;;;;;1.50;0.43;;;17.60;77.70;;;;;;5074774;28;20433;-81
2022/06/17 00:29:11;;;;;;;0.60;0.57;;;17.50;77.70;;;;;;5074435;28;20437;-81
2022/06/17 00:31:37;;;;;;;1.70;0.60;;;17.60;77.20;;;;;;5074619;28;20440;-81
2022/06/17 00:34:05;;;;;;;0.40;0.30;;;17.50;77.30;;;;;;5074207;28;20998;-81
2022/06/17 00:36:33;;;;;;;0.50;0.50;;;17.60;76.70;;;;;;5074028;28;20476;-81
2022/06/17 00:38:59;;;;;;;0.50;0.50;;;17.50;76.60;;;;;;5074570;28;20452;-81
2022/06/17 00:41:29;;;;;;;0.77;0.60;;;17.50;77.00;;;;;;5074147;28;20433;-81
2022/06/17 00:43:58;;;;;;;1.20;0.67;;;17.50;78.10;;;;;;5074109;28;20433;-81
2022/06/17 00:46:33;;;;;;;0.90;0.90;;;17.50;77.70;;;;;;5074338;28;20449;-81
2022/06/17 00:49:07;;;;;;;0.47;0.43;;;17.50;78.50;;;;;;5074315;28;20460;-81
2022/06/17 00:51:41;;;;;;;1.33;0.67;;;17.50;79.00;;;;;;5073963;28;20912;-81
2022/06/17 00:54:17;;;;;;;0.50;0.50;;;17.50;78.00;;;;;;5073819;28;21014;-81
2022/06/17 00:56:44;;;;;;;0.73;0.60;;;17.40;78.60;;;;;;5073921;28;20916;-81
2022/06/17 00:59:13;;;;;;;0.80;0.80;;;17.40;79.10;;;;;;5073957;28;20456;-81
2022/06/17 01:01:47;;;;;;;1.07;0.40;;;17.40;80.00;;;;;;5073669;28;20452;-80
2022/06/17 01:04:18;;;;;;;1.23;0.73;;;17.40;80.00;;;;;;5073964;28;20473;-81
2022/06/17 01:06:50;;;;;;;0.53;0.50;;;17.40;79.70;;;;;;5074009;28;20433;-81
2022/06/17 01:12:10;;;;;;;0.80;0.80;;;17.30;79.00;;;;;;5073684;28;20400;-81
2022/06/17 01:14:39;;;;;;;0.80;0.60;;;17.30;79.80;;;;;;5073508;28;20461;-81
2022/06/17 01:17:06;;;;;;;0.40;0.40;;;17.20;79.90;;;;;;5073496;28;20940;-81
2022/06/17 01:19:39;;;;;;;0.77;0.70;;;17.30;80.00;;;;;;5073726;28;20444;-81
2022/06/17 01:22:15;;;;;;;0.50;0.50;;;17.20;80.00;;;;;;5073706;28;20469;-80
2022/06/17 01:24:45;;;;;;;0.70;0.50;;;17.20;80.30;;;;;;5073345;28;20975;-81
2022/06/17 01:27:12;;;;;;;0.80;0.50;;;17.20;80.00;;;;;;5073651;28;20448;-81
2022/06/17 01:29:39;;;;;;;0.60;0.47;;;17.10;80.30;;;;;;5073628;28;20449;-81
2022/06/17 01:32:08;;;;;;;2.57;0.70;;;17.10;80.30;;;;;;5073575;28;20536;-81
2022/06/17 01:34:36;;;;;;;0.80;0.60;;;17.00;80.30;;;;;;5073731;28;20471;-81
2022/06/17 01:37:03;;;;;;;0.70;0.70;;;16.90;80.10;;;;;;5073131;28;20477;-80
2022/06/17 01:39:30;;;;;;;0.50;0.50;;;16.90;80.60;;;;;;5072906;28;20437;-80
2022/06/17 01:41:58;;;;;;;3.70;0.60;;;16.90;82.00;;;;;;5073390;28;20471;-80
2022/06/17 01:44:33;;;;;;;1.27;0.47;;;16.90;81.70;;;;;;5073413;28;20461;-80
2022/06/17 01:47:02;;;;;;;0.40;0.40;;;16.80;80.80;;;;;;5073471;28;20429;-80
2022/06/17 01:49:34;;;;;;;0.70;0.60;;;16.80;81.00;;;;;;5073413;28;20425;-81
2022/06/17 01:52:05;;;;;;;0.67;0.50;;;16.80;81.70;;;;;;5073113;28;20815;-81
2022/06/17 01:54:37;;;;;;;1.90;0.60;;;16.80;81.40;;;;;;5072945;28;20988;-80
2022/06/17 01:57:08;;;;;;;0.83;0.53;;;16.80;81.60;;;;;;5073353;28;20430;-81
2022/06/17 01:59:39;;;;;;;0.60;0.60;;;16.80;82.40;;;;;;5073589;28;20754;-81
2022/06/17 02:02:08;;;;;;;0.77;0.63;;;16.70;82.50;;;;;;5073231;28;20443;-80
2022/06/17 02:04:39;;;;;;;12.57;1.00;;;16.70;82.00;;;;;;5072877;28;20475;-80
2022/06/17 02:07:14;;;;;;;0.90;0.60;;;16.60;82.70;;;;;;5073291;28;20432;-80
2022/06/17 02:09:41;;;;;;;0.50;0.50;;;16.60;82.50;;;;;;5073265;28;20800;-82
2022/06/17 02:12:11;;;;;;;0.60;0.57;;;16.60;82.70;;;;;;5073152;28;20796;-82
2022/06/17 02:14:38;;;;;;;0.47;0.47;;;16.60;83.20;;;;;;5072771;28;20468;-82
2022/06/17 02:17:06;;;;;;;0.43;0.43;;;16.60;83.40;;;;;;5073797;28;20468;-82
2022/06/17 02:19:36;;;;;;;1.63;0.50;;;16.50;83.00;;;;;;5073108;28;20448;-82
2022/06/17 02:22:07;;;;;;;0.80;0.43;;;16.50;83.80;;;;;;5073054;28;20432;-82
2022/06/17 02:24:34;;;;;;;0.40;0.37;;;16.50;84.90;;;;;;5073001;28;20472;-82
2022/06/17 02:27:05;;;;;;;0.50;0.50;;;16.50;84.30;;;;;;5073045;28;20445;-82
2022/06/17 02:29:35;;;;;;;0.50;0.50;;;16.40;83.90;;;;;;5073038;28;20432;-82
2022/06/17 02:32:06;;;;;;;1.30;1.03;;;16.40;84.90;;;;;;5073086;28;20409;-82
2022/06/17 02:34:33;;;;;;;0.70;0.50;;;16.40;84.60;;;;;;5072574;28;20476;-82
2022/06/17 02:37:04;;;;;;;0.60;0.47;;;16.40;84.50;;;;;;5072523;28;20484;-82
2022/06/17 02:39:31;;;;;;;0.50;0.50;;;16.30;85.00;;;;;;5072686;28;20433;-82
2022/06/17 02:41:58;;;;;;;0.67;0.67;;;16.30;85.60;;;;;;5072904;28;20475;-82
2022/06/17 02:44:29;;;;;;;0.40;0.40;;;16.20;85.90;;;;;;5072730;28;20489;-82
2022/06/17 02:47:01;;;;;;;0.60;0.40;;;16.20;86.30;;;;;;5072909;28;20440;-82
2022/06/17 02:49:35;;;;;;;0.60;0.50;;;16.20;87.00;;;;;;5072551;28;20927;-82
2022/06/17 02:52:04;;;;;;;0.60;0.50;;;16.20;86.00;;;;;;5075170;28;20463;-82
2022/06/17 02:54:36;;;;;;;0.40;0.40;;;16.10;85.80;;;;;;5076134;28;21006;-82
2022/06/17 02:57:04;;;;;;;0.50;0.50;;;16.10;86.60;;;;;;5076498;28;20439;-82
2022/06/17 02:59:37;;;;;;;0.90;0.60;;;16.10;87.20;;;;;;5076406;28;20445;-83
2022/06/17 03:02:14;;;;;;;0.70;0.70;;;16.10;87.70;;;;;;5076109;28;20904;-82
2022/06/17 03:04:44;;;;;;;0.63;0.50;;;16.10;87.40;;;;;;5076266;28;20535;-82
2022/06/17 03:07:15;;;;;;;0.50;0.40;;;16.10;87.10;;;;;;5076286;28;20429;-82
2022/06/17 03:09:43;;;;;;;0.60;0.60;;;16.00;87.00;;;;;;5075919;28;20908;-82
2022/06/17 03:12:12;;;;;;;0.50;0.50;;;16.00;87.80;;;;;;5076196;28;20452;-82
2022/06/17 03:14:44;;;;;;;1.03;0.50;;;16.00;89.30;;;;;;5076081;28;20472;-82
2022/06/17 03:17:17;;;;;;;0.70;0.60;;;15.90;89.00;;;;;;5075806;28;20429;-82
2022/06/17 03:19:45;;;;;;;1.33;0.50;;;15.90;88.10;;;;;;5076066;28;20421;-82
2022/06/17 03:22:13;;;;;;;0.50;0.40;;;15.90;88.40;;;;;;5075987;28;20523;-83
2022/06/17 03:24:45;;;;;;;0.70;0.50;;;15.90;89.30;;;;;;5075344;28;20606;-82
2022/06/17 03:27:23;;;;;;;0.57;0.50;;;15.80;90.00;;;;;;5075939;28;20426;-82
2022/06/17 03:29:51;;;;;;;1.07;0.57;;;15.80;89.10;;;;;;5075925;28;20425;-82
2022/06/17 03:32:24;;;;;;;5.70;0.60;;;15.80;89.20;;;;;;5075831;28;20453;-82
2022/06/17 03:34:54;;;;;;;1.13;1.00;;;15.80;89.20;;;;;;5075744;28;20480;-82
2022/06/17 03:37:28;;;;;;;2.00;0.60;;;15.80;89.60;;;;;;5075439;28;21001;-82
2022/06/17 03:39:59;;;;;;;1.13;0.70;;;15.80;90.20;;;;;;5075700;28;20434;-82
2022/06/17 03:42:30;;;;;;;0.60;0.60;;;15.80;90.00;;;;;;5075619;28;20429;-82
2022/06/17 03:45:01;;;;;;;0.50;0.47;;;15.80;90.00;;;;;;5075581;28;20480;-82
2022/06/17 03:47:38;;;;;;;5.93;0.80;;;15.90;90.10;;;;;;5075579;28;20433;-82
2022/06/17 03:50:09;;;;;;;0.80;0.80;;;15.90;89.60;;;;;;5075546;28;20433;-82
2022/06/17 03:52:42;;;;;;;0.70;0.60;;;15.90;89.80;;;;;;5075545;28;20463;-82
2022/06/17 03:55:14;;;;;;;0.60;0.50;;;16.00;90.40;;;;;;5075376;28;20882;-82
2022/06/17 03:57:44;;;;;;;0.77;0.60;;;16.00;90.10;;;;;;5075105;28;20936;-82
2022/06/17 04:00:17;;;;;;;0.40;0.40;;;16.10;90.30;;;;;;5075565;28;20460;-82
2022/06/17 04:02:47;;;;;;;0.60;0.60;;;16.10;90.20;;;;;;5074672;28;20441;-82
2022/06/17 04:05:15;;;;;;;1.27;0.40;;;16.10;90.30;;;;;;5075428;28;20464;-82
2022/06/17 04:07:42;;;;;;;0.60;0.60;;;16.00;90.30;;;;;;5075148;28;20455;-82
2022/06/17 04:10:14;;;;;;;0.60;0.57;;;16.00;90.20;;;;;;5074840;28;20445;-81
2022/06/17 04:12:40;;;;;;;0.83;0.57;;;16.00;90.30;;;;;;5075062;28;20429;-81
2022/06/17 04:15:15;;;;;;;0.50;0.50;;;16.10;90.50;;;;;;5074924;28;20462;-81
2022/06/17 04:17:44;;;;;;;1.00;0.60;;;16.10;90.70;;;;;;5074999;28;20436;-81
2022/06/17 04:20:32;;;;;;;0.67;0.60;;;16.10;90.80;;;;;;5074899;28;20441;-81
2022/06/17 04:23:03;;;;;;;0.60;0.50;;;16.20;91.10;;;;;;5074464;28;20465;-81
2022/06/17 04:25:35;;;;;;;1.03;0.50;;;16.20;91.10;;;;;;5074738;28;20479;-81
2022/06/17 04:28:06;;;;;;;0.97;0.83;;;16.20;91.40;;;;;;5074764;28;20433;-82
2022/06/17 04:30:38;;;;;;;1.60;0.60;;;16.20;91.20;;;;;;5075248;28;20441;-82
2022/06/17 04:33:10;;;;;;;0.83;0.50;;;16.30;91.40;;;;;;5074731;28;20421;-82
2022/06/17 04:35:38;;;;;;;0.60;0.60;;;16.30;91.50;;;;;;5074109;28;20496;-81
2022/06/17 04:38:05;;;;;;;0.50;0.50;;;16.30;91.60;;;;;;5074527;28;20456;-82
2022/06/17 04:40:38;;;;;;;0.90;0.60;;;16.30;91.50;;;;;;5074448;28;20444;-82
2022/06/17 04:43:11;;;;;;;0.50;0.50;;;16.40;91.60;;;;;;5074805;28;20795;-82
2022/06/17 04:45:38;;;;;;;0.97;0.60;;;16.40;91.90;;;;;;5074132;28;20967;-81
2022/06/17 04:48:05;;;;;;;0.70;0.50;;;16.40;91.90;;;;;;5074365;28;20456;-82
2022/06/17 04:50:32;;;;;;;0.53;0.40;;;16.40;91.60;;;;;;5073971;28;20826;-82
2022/06/17 04:53:00;;;;;;;2.00;1.20;;;16.40;91.70;;;;;;5074294;28;20445;-81
2022/06/17 04:55:32;;;;;;;0.57;0.57;;;16.40;91.60;;;;;;5074170;28;20476;-81
2022/06/17 04:57:59;;;;;;;1.17;0.70;;;16.40;91.50;;;;;;5074165;28;20437;-82
2022/06/17 05:00:28;;;;;;;0.50;0.43;;;16.50;91.30;;;;;;5074090;28;20449;-81
2022/06/17 05:02:57;;;;;;;0.50;0.50;;;16.50;91.60;;;;;;5073972;28;20453;-81
2022/06/17 05:05:31;;;;;;;0.70;0.53;;;16.60;91.90;;;;;;5073957;28;20471;-81
2022/06/17 05:08:00;;;;;;;0.73;0.50;;;16.60;92.00;;;;;;5073703;28;20900;-81
2022/06/17 05:10:31;;;;;;;0.50;0.40;;;16.60;91.90;;;;;;5073617;28;20448;-81
2022/06/17 05:13:03;;;;;;;0.97;0.53;;;16.70;91.50;;;;;;5074043;28;20461;-81
2022/06/17 05:15:31;;;;;;;0.80;0.50;;;16.70;91.50;;;;;;5072988;28;20653;-81
2022/06/17 05:17:58;;;;;;;3.40;0.80;;;16.70;91.10;;;;;;5073819;28;20448;-81
2022/06/17 05:20:26;;;;;;;1.13;0.60;;;16.70;90.70;;;;;;5073900;28;20488;-81
2022/06/17 05:22:57;;;;;;;0.50;0.50;;;16.80;90.70;;;;;;5073439;28;20448;-81
2022/06/17 05:25:27;;;;;;;1.13;0.80;;;16.90;90.70;;;;;;5073327;28;20499;-81
2022/06/17 05:27:55;;;;;;;1.23;0.50;;;17.00;90.60;;;;;;5073719;28;20432;-82
2022/06/17 05:30:22;;;;;;;0.80;0.60;;;17.10;90.40;;;;;;5073346;28;20964;-82
2022/06/17 05:32:51;;;;;;;0.50;0.50;;;17.20;90.90;;;;;;5073542;28;20458;-82
2022/06/17 05:35:19;;;;;;;2.20;0.60;;;17.30;90.60;;;;;;5073271;28;20488;-81
2022/06/17 05:37:46;;;;;;;5.13;1.17;;;17.50;90.80;;;;;;5073554;28;20539;-81
2022/06/17 05:40:13;;;;;;;0.70;0.70;;;17.60;90.40;;;;;;5073522;28;20444;-81
2022/06/17 05:42:43;;;;;;;1.37;0.60;;;17.70;90.20;;;;;;5073467;28;20444;-81
2022/06/17 05:45:16;;;;;;;0.70;0.60;;;17.80;89.40;;;;;;5073039;28;21018;-81
2022/06/17 05:47:43;;;;;;;1.00;0.63;;;17.90;89.70;;;;;;5073467;28;20436;-82
2022/06/17 05:50:10;;;;;;;1.00;0.80;;;18.10;89.40;;;;;;5073064;28;20453;-82
2022/06/17 05:52:48;;;;;;;1.23;0.63;;;18.20;89.20;;;;;;5073370;28;20445;-82
2022/06/17 05:55:15;;;;;;;0.60;0.60;;;18.30;88.40;;;;;;5073362;28;20479;-82
2022/06/17 05:57:43;;;;;;;1.57;0.50;;;18.50;88.40;;;;;;5073330;28;20440;-82
2022/06/17 06:00:11;;;;;;;0.80;0.80;;;18.70;88.10;;;;;;5073305;28;20455;-82
2022/06/17 06:02:38;;;;;;;0.70;0.60;;;18.80;87.90;;;;;;5072923;28;20948;-82
2022/06/17 06:05:06;;;;;;;0.50;0.50;;;19.00;86.50;;;;;;5073101;28;20488;-81
2022/06/17 06:07:33;;;;;;;1.27;0.80;;;19.30;85.80;;;;;;5072942;28;20787;-82
2022/06/17 06:10:00;;;;;;;0.70;0.70;;;19.50;85.10;;;;;;5073447;28;20444;-82
2022/06/17 06:12:53;;;;;;;0.60;0.60;;;19.70;85.00;;;;;;5073466;28;20942;-82
2022/06/17 06:15:15;;;;;;;1.07;0.60;;;20.00;85.50;;;;;;5072972;28;20546;-82
2022/06/17 06:17:45;;;;;;;0.80;0.80;;;20.30;85.00;;;;;;5073190;28;20788;-82
2022/06/17 06:20:12;;;;;;;0.60;0.60;;;20.70;84.30;;;;;;5073141;28;20455;-82
2022/06/17 06:22:39;;;;;;;0.60;0.60;;;21.10;82.50;;;;;;5073138;28;20202;-82
2022/06/17 06:25:07;;;;;;;0.73;0.73;;;21.60;80.40;;;;;;5072945;28;20225;-82
2022/06/17 06:27:34;;;;;;;3.67;0.90;;;22.00;78.50;;;;;;5076688;28;20206;-82
2022/06/17 06:30:00;;;;;;;0.60;0.60;;;22.40;76.40;;;;;;5076691;28;20566;-82
2022/06/17 06:32:29;;;;;;;10.38;1.23;;;22.80;76.10;;;;;;5076942;28;20570;-82
2022/06/17 06:34:56;;;;;;;0.80;0.80;;;23.20;76.60;;;;;;5076387;28;20225;-83
2022/06/17 06:37:23;;;;;;;0.75;0.60;;;23.60;75.40;;;;;;5076873;28;20201;-82
2022/06/17 06:39:49;;;;;;;0.77;0.77;;;23.80;72.50;;;;;;5076827;28;20579;-83
2022/06/17 06:42:16;;;;;;;0.82;0.82;;;23.80;71.30;;;;;;5076441;28;20577;-83
2022/06/17 06:44:43;;;;;;;2.00;1.25;;;23.80;73.20;;;;;;5076286;28;20696;-83
2022/06/17 06:47:12;;;;;;;0.75;0.75;;;23.80;71.70;;;;;;5076668;28;20271;-82
2022/06/17 06:49:40;;;;;;;0.82;0.80;;;23.70;70.90;;;;;;5076673;28;20194;-83
2022/06/17 06:52:07;;;;;;;0.85;0.85;;;23.50;70.00;;;;;;5076788;28;20213;-83
2022/06/17 06:54:34;;;;;;;0.77;0.70;;;23.40;71.40;;;;;;5076475;28;20214;-83
2022/06/17 06:57:01;;;;;;;1.40;1.17;;;23.50;71.40;;;;;;5076209;28;20187;-83
2022/06/17 06:59:28;;;;;;;0.70;0.70;;;23.70;71.40;;;;;;5076774;28;20206;-83
2022/06/17 07:01:54;;;;;;;0.80;0.80;;;23.90;71.50;;;;;;5076489;28;20206;-83
2022/06/17 07:04:21;;;;;;;1.02;0.93;;;23.80;70.00;;;;;;5076226;28;20232;-84
2022/06/17 07:06:49;;;;;;;1.25;0.95;;;23.80;69.50;;;;;;5076307;28;20247;-84
2022/06/17 07:09:16;;;;;;;0.85;0.85;;;23.70;69.50;;;;;;5076257;28;20206;-83
2022/06/17 07:11:43;;;;;;;0.93;0.90;;;23.70;71.50;;;;;;5076878;28;20234;-83
2022/06/17 07:14:10;;;;;;;0.70;0.70;;;23.70;70.80;;;;;;5076128;28;20225;-83
2022/06/17 07:16:37;;;;;;;0.70;0.70;;;23.80;71.00;;;;;;5076138;28;20202;-84
2022/06/17 07:19:07;;;;;;;2.05;0.95;;;23.80;69.50;;;;;;5076238;28;20202;-84
2022/06/17 07:21:34;;;;;;;1.45;0.75;;;23.80;74.20;;;;;;5076053;28;20292;-82
2022/06/17 07:24:02;;;;;;;1.17;1.08;;;23.50;78.40;;;;;;5076001;28;20233;-81
2022/06/17 07:26:29;;;;;;;1.25;1.10;;;23.20;78.00;;;;;;5075649;28;20738;-81
2022/06/17 07:28:56;;;;;;;0.80;0.80;;;22.90;76.10;;;;;;5076225;28;20209;-81
2022/06/17 07:31:23;;;;;;;2.78;0.80;;;22.90;79.10;;;;;;5075545;28;20209;-82
2022/06/17 07:33:51;;;;;;;0.85;0.82;;;23.10;78.40;;;;;;5075846;28;20202;-83
2022/06/17 07:41:49;;;;;;;1.17;1.08;;;24.00;75.80;;;;;;5075230;28;20208;-80
2022/06/17 07:44:17;;;;;;;3.30;1.30;;;24.60;76.20;;;;;;5075651;28;20253;-85
2022/06/17 07:46:44;;;;;;;1.73;0.85;;;25.20;73.00;;;;;;5075675;28;20206;-81
2022/06/17 07:49:10;;;;;;;0.80;0.80;;;25.70;70.60;;;;;;5075506;28;20209;-82
2022/06/17 07:51:37;;;;;;;1.50;0.90;;;26.20;68.50;;;;;;5075501;28;20190;-82
2022/06/17 07:54:06;;;;;;;1.25;1.15;;;26.50;67.40;;;;;;5075375;28;20229;-83
2022/06/17 07:56:32;;;;;;;1.00;1.00;;;27.00;65.10;;;;;;5075057;28;20677;-82
2022/06/17 07:58:59;;;;;;;1.00;0.90;;;27.20;65.70;;;;;;5075092;28;20202;-82
2022/06/17 08:01:26;;;;;;;1.00;0.90;;;27.20;65.60;;;;;;5075535;28;20293;-82
2022/06/17 08:03:53;;;;;;;0.90;0.90;;;27.20;65.20;;;;;;5075055;28;20202;-82
2022/06/17 08:06:20;;;;;;;0.85;0.85;;;27.20;65.20;;;;;;5075496;28;20206;-82
2022/06/17 08:08:48;;;;;;;1.48;1.00;;;27.20;65.90;;;;;;5074895;28;20206;-82
2022/06/17 08:11:16;;;;;;;1.55;0.98;;;27.40;63.60;;;;;;5075066;28;20664;-82
2022/06/17 08:13:44;;;;;;;0.93;0.93;;;27.50;63.50;;;;;;5074991;28;20203;-82
2022/06/17 08:16:13;;;;;;;1.10;1.10;;;27.80;62.90;;;;;;5074750;28;20567;-82
2022/06/17 08:18:41;;;;;;;1.38;0.85;;;27.90;60.70;;;;;;5074978;28;20213;-82
2022/06/17 08:21:10;;;;;;;1.23;1.15;;;28.40;61.20;;;;;;5074934;28;20205;-82
2022/06/17 08:23:36;;;;;;;0.80;0.80;;;29.00;59.50;;;;;;5074912;28;20564;-82
2022/06/17 08:26:04;;;;;;;1.00;0.90;;;29.00;58.90;;;;;;5074685;28;20227;-82
2022/06/17 08:28:32;;;;;;;0.90;0.90;;;29.30;58.20;;;;;;5074810;28;20204;-82
2022/06/17 08:30:59;;;;;;;0.95;0.80;;;29.40;58.00;;;;;;5074759;28;20535;-82
2022/06/17 08:33:29;;;;;;;1.05;1.02;;;29.40;57.70;;;;;;5074337;28;20681;-82
2022/06/17 08:35:59;;;;;;;0.90;0.90;;;29.70;56.50;;;;;;5074205;28;20239;-82
2022/06/17 08:38:28;;;;;;;0.85;0.80;;;29.70;53.70;;;;;;5075919;28;20521;-82
2022/06/17 08:40:58;;;;;;;1.30;0.82;;;29.40;57.10;;;;;;5074614;28;20194;-82
2022/06/17 08:43:52;;;;;;;1.00;1.00;;;29.30;57.90;;;;;;5074661;28;20296;-83
2022/06/17 08:46:36;;;;;;;0.80;0.80;;;29.40;56.40;;;;;;5074630;28;20580;-82
2022/06/17 08:49:32;;;;;;;1.05;0.95;;;29.40;56.50;;;;;;5074374;28;20213;-83
2022/06/17 08:52:15;;;;;;;0.90;0.90;;;29.70;56.90;;;;;;5074066;28;20665;-81
2022/06/17 08:54:53;;;;;;;0.80;0.80;;;29.90;56.60;;;;;;5074224;28;20240;-82
2022/06/17 08:57:25;;;;;;;0.90;0.90;;;30.20;55.70;;;;;;5073944;28;20650;-82
2022/06/17 09:00:06;;;;;;;3.38;1.23;;;30.00;54.30;;;;;;5074445;28;20188;-82
2022/06/17 09:03:05;;;;;;;1.10;1.00;;;29.90;54.30;;;;;;5074173;28;20245;-81
2022/06/17 09:05:43;;;;;;;0.80;0.80;;;29.40;55.60;;;;;;5074034;28;20272;-82
2022/06/17 09:08:24;;;;;;;1.00;0.95;;;29.10;56.60;;;;;;5074035;28;20191;-81
2022/06/17 09:11:03;;;;;;;2.20;1.30;;;28.90;57.70;;;;;;5074057;28;20193;-82
2022/06/17 09:13:38;;;;;;;1.02;1.02;;;28.60;59.00;;;;;;5074010;28;20192;-82
2022/06/17 09:16:15;;;;;;;1.08;0.98;;;28.40;59.40;;;;;;5073616;28;20186;-82
2022/06/17 09:18:44;;;;;;;1.20;1.02;;;28.30;58.80;;;;;;5073905;28;20186;-82
2022/06/17 09:21:15;;;;;;;1.20;1.10;;;28.20;59.50;;;;;;5073863;28;20205;-82
2022/06/17 09:23:42;;;;;;;1.50;1.10;;;28.30;59.20;;;;;;5073703;28;20224;-82
2022/06/17 09:26:15;;;;;;;1.30;1.10;;;28.40;58.80;;;;;;5073710;28;20229;-82
2022/06/17 09:28:47;;;;;;;0.70;0.70;;;28.60;58.60;;;;;;5073778;28;20185;-82
2022/06/17 09:31:20;;;;;;;1.33;1.10;;;28.60;58.40;;;;;;5073963;28;20189;-82
2022/06/17 09:33:53;;;;;;;1.67;1.02;;;28.60;59.10;;;;;;5073827;28;20185;-82
2022/06/17 09:36:26;;;;;;;1.67;1.00;;;28.60;59.10;;;;;;5073168;28;20232;-81
2022/06/17 09:38:58;;;;;;;0.82;0.82;;;28.40;58.70;;;;;;5073750;28;20210;-81
2022/06/17 09:41:29;;;;;;;0.98;0.98;;;28.30;59.00;;;;;;5073585;28;20195;-81
2022/06/17 09:44:03;;;;;;;1.38;0.93;;;28.20;59.00;;;;;;5074012;28;20195;-82
2022/06/17 09:46:37;;;;;;;1.23;1.08;;;28.20;57.10;;;;;;5073103;28;20202;-82
2022/06/17 09:49:08;;;;;;;1.27;1.10;;;28.00;58.20;;;;;;5073162;28;20186;-82
2022/06/17 09:51:41;;;;;;;1.30;1.20;;;27.80;58.40;;;;;;5073469;28;20193;-82
2022/06/17 09:54:14;;;;;;;0.98;0.95;;;27.60;58.70;;;;;;5073321;28;20222;-82
2022/06/17 09:56:46;;;;;;;0.95;0.90;;;27.50;58.30;;;;;;5073042;28;20189;-82
2022/06/17 09:59:18;;;;;;;2.63;0.75;;;27.30;62.50;;;;;;5073463;28;20196;-81
2022/06/17 10:01:47;;;;;;;0.82;0.82;;;27.40;59.50;;;;;;5072573;28;20661;-81
2022/06/17 10:04:16;;;;;;;0.80;0.80;;;27.40;59.30;;;;;;5073248;28;20226;-82
2022/06/17 10:06:54;;;;;;;0.65;0.65;;;27.30;59.70;;;;;;5073225;28;20217;-82
2022/06/17 10:09:36;;;;;;;0.63;0.63;;;27.30;62.00;;;;;;5073336;28;20182;-81
2022/06/17 10:12:10;;;;;;;0.90;0.90;;;27.40;60.50;;;;;;5072987;28;20197;-81
2022/06/17 10:14:57;;;;;;;0.90;0.90;;;27.10;59.90;;;;;;5072860;28;20263;-81
2022/06/17 10:20:34;;;;;;;0.70;0.70;;;27.40;60.00;;;;;;5073251;28;20192;-82
2022/06/17 10:23:09;;;;;;;1.30;0.80;;;27.60;60.40;;;;;;5072877;28;20642;-81
2022/06/17 10:25:43;;;;;;;0.90;0.77;;;27.80;59.80;;;;;;5072817;28;20233;-81
2022/06/17 10:28:51;;;;;;;0.93;0.75;;;27.70;59.60;;;;;;5072831;28;20672;-82
2022/06/17 10:31:28;;;;;;;1.33;1.00;;;27.70;60.50;;;;;;5062981;28;20213;-82
2022/06/17 10:33:58;;;;;;;1.00;0.90;;;27.80;59.90;;;;;;5073008;28;20182;-82
2022/06/17 10:36:25;;;;;;;0.98;0.85;;;27.80;58.80;;;;;;5072718;28;20717;-82
2022/06/17 10:38:52;;;;;;;1.15;0.80;;;27.70;58.20;;;;;;5073007;28;20202;-82
2022/06/17 10:41:19;;;;;;;0.93;0.70;;;27.80;58.20;;;;;;5072960;28;20206;-83
2022/06/17 10:43:49;;;;;;;5.82;1.17;;;27.70;57.60;;;;;;5072577;28;20744;-82
2022/06/17 10:46:21;;;;;;;0.73;0.73;;;27.70;57.10;;;;;;5072825;28;20217;-82
2022/06/17 10:48:53;;;;;;;1.10;1.00;;;27.80;59.00;;;;;;5072576;28;20190;-82
2022/06/17 10:51:21;;;;;;;0.95;0.95;;;27.90;58.70;;;;;;5072898;28;20197;-81
2022/06/17 10:53:51;;;;;;;0.95;0.90;;;28.10;58.00;;;;;;5072748;28;20224;-82
2022/06/17 10:56:23;;;;;;;0.85;0.85;;;28.30;56.60;;;;;;5072796;28;20204;-81
2022/06/17 10:58:58;;;;;;;1.08;0.98;;;28.70;55.90;;;;;;5072457;28;20635;-82
2022/06/17 11:01:25;;;;;;;0.90;0.90;;;29.00;54.30;;;;;;5072427;28;20637;-82
2022/06/17 11:04:12;;;;;;;0.82;0.82;;;29.20;54.90;;;;;;5072264;28;20205;-82
2022/06/17 11:06:50;;;;;;;0.80;0.80;;;29.50;55.40;;;;;;5072331;28;20248;-82
2022/06/17 11:09:25;;;;;;;0.80;0.80;;;29.50;52.90;;;;;;5072732;28;20274;-82
2022/06/17 11:12:06;;;;;;;0.98;0.98;;;29.50;53.70;;;;;;5072703;28;20192;-82
2022/06/17 11:14:48;;;;;;;2.15;0.75;;;29.20;54.90;;;;;;5075642;28;20224;-82
2022/06/17 11:17:19;;;;;;;0.85;0.85;;;28.90;54.10;;;;;;5075863;28;20644;-82
2022/06/17 11:19:49;;;;;;;1.75;0.98;;;28.70;54.50;;;;;;5076139;28;20266;-81
2022/06/17 11:22:22;;;;;;;0.95;0.95;;;28.60;54.10;;;;;;5076065;28;20213;-82
2022/06/17 11:24:55;;;;;;;1.13;0.90;;;28.50;53.90;;;;;;5076163;28;20237;-82
2022/06/17 11:27:31;;;;;;;0.90;0.85;;;28.20;55.20;;;;;;5076048;28;20183;-82
2022/06/17 11:30:20;;;;;;;1.00;1.00;;;27.90;56.20;;;;;;5076398;28;20252;-82
2022/06/17 11:32:47;;;;;;;1.10;1.10;;;27.80;56.60;;;;;;5075612;28;20634;-81
2022/06/17 11:35:21;;;;;;;0.93;0.93;;;27.90;56.60;;;;;;5075481;28;20287;-82
2022/06/17 11:37:51;;;;;;;1.15;1.00;;;28.00;56.30;;;;;;5076691;28;20568;-81
2022/06/17 11:40:22;;;;;;;0.80;0.80;;;28.00;54.10;;;;;;5075763;28;20183;-82
2022/06/17 11:42:53;;;;;;;0.70;0.70;;;27.90;55.80;;;;;;5076040;28;20190;-81
2022/06/17 11:45:23;;;;;;;1.13;1.00;;;27.70;55.90;;;;;;5075737;28;20222;-81
2022/06/17 11:47:55;;;;;;;0.98;0.98;;;27.60;55.60;;;;;;5076146;28;20190;-81
2022/06/17 11:50:26;;;;;;;1.02;0.80;;;27.60;55.30;;;;;;5075615;28;20193;-81
2022/06/17 11:53:04;;;;;;;0.80;0.80;;;27.40;56.10;;;;;;5075788;28;20218;-82
2022/06/17 11:55:32;;;;;;;0.95;0.90;;;27.40;55.60;;;;;;5075462;28;20218;-82
2022/06/17 11:58:00;;;;;;;0.70;0.70;;;27.40;55.40;;;;;;5075696;28;20209;-82
2022/06/17 12:00:39;;;;;;;1.05;0.70;;;27.40;55.20;;;;;;5075384;28;20209;-82
2022/06/17 12:03:06;;;;;;;0.85;0.85;;;27.20;56.10;;;;;;5075067;28;20550;-82
2022/06/17 12:05:36;;;;;;;0.95;0.77;;;27.30;56.60;;;;;;5075175;28;20233;-82
2022/06/17 12:08:12;;;;;;;0.77;0.77;;;27.40;56.60;;;;;;5075318;28;20273;-82
2022/06/17 12:10:46;;;;;;;0.70;0.70;;;27.40;57.90;;;;;;5075237;28;20186;-83
2022/06/17 12:13:22;;;;;;;1.27;0.85;;;27.60;57.50;;;;;;5075396;28;20210;-82
2022/06/17 12:15:54;;;;;;;1.33;1.23;;;27.50;55.40;;;;;;5075060;28;20221;-82
2022/06/17 12:18:25;;;;;;;5.07;0.90;;;27.70;56.00;;;;;;5075104;28;20193;-81
2022/06/17 12:21:03;;;;;;;0.75;0.75;;;27.90;55.10;;;;;;5075818;28;20202;-82
2022/06/17 12:23:38;;;;;;;0.82;0.80;;;27.80;54.00;;;;;;5074287;28;20180;-82
2022/06/17 12:26:14;;;;;;;0.82;0.73;;;27.60;54.50;;;;;;5074478;28;20700;-81
2022/06/17 12:28:50;;;;;;;1.23;0.98;;;27.40;54.20;;;;;;5074857;28;20193;-81
2022/06/17 12:31:28;;;;;;;0.98;0.88;;;27.40;54.50;;;;;;5075071;28;20194;-80
2022/06/17 12:34:05;;;;;;;0.75;0.75;;;27.30;54.40;;;;;;5074374;28;20684;-82
2022/06/17 12:36:38;;;;;;;0.82;0.82;;;27.20;54.60;;;;;;5074344;28;20569;-82
2022/06/17 12:39:12;;;;;;;2.65;0.80;;;27.10;54.50;;;;;;5074377;28;20660;-82
2022/06/17 12:41:50;;;;;;;0.88;0.70;;;27.00;54.90;;;;;;5074604;28;20189;-82
2022/06/17 12:44:26;;;;;;;0.60;0.60;;;26.80;54.60;;;;;;5074210;28;20745;-81
2022/06/17 12:47:03;;;;;;;0.80;0.80;;;26.80;55.60;;;;;;5074773;28;20210;-81
2022/06/17 12:55:24;;;;;;;0.75;0.73;;;26.70;54.50;;;;;;5074126;28;20725;-81
2022/06/17 12:58:00;;;;;;;0.80;0.80;;;26.70;55.00;;;;;;5074287;28;20202;-81
2022/06/17 13:00:32;;;;;;;0.70;0.60;;;26.60;55.20;;;;;;5073887;28;20204;-81
2022/06/17 13:03:18;;;;;;;0.85;0.85;;;26.60;55.80;;;;;;5074150;28;20194;-81
2022/06/17 13:05:47;;;;;;;0.60;0.60;;;26.50;55.90;;;;;;5073631;28;20329;-81
2022/06/17 13:08:26;;;;;;;0.75;0.75;;;26.50;57.00;;;;;;5074065;28;20201;-81
2022/06/17 13:11:01;;;;;;;0.85;0.70;;;26.40;57.80;;;;;;5073971;28;20194;-81
2022/06/17 13:13:58;;;;;;;0.80;0.80;;;26.50;57.60;;;;;;5073998;28;20185;-82
2022/06/17 13:16:30;;;;;;;0.80;0.80;;;26.50;57.60;;;;;;5073919;28;20198;-82
2022/06/17 13:19:04;;;;;;;1.88;1.10;;;26.50;57.30;;;;;;5073897;28;20182;-81
2022/06/17 13:21:35;;;;;;;0.75;0.70;;;26.50;56.70;;;;;;5073888;28;20186;-81
2022/06/17 13:24:12;;;;;;;1.10;1.10;;;26.60;56.50;;;;;;5073771;28;20230;-81
2022/06/17 13:26:47;;;;;;;0.80;0.80;;;26.70;56.00;;;;;;5073695;28;20213;-82